Time;durP1;ratioP1;P1;durP2;ratioP2;P2;SDS_P1;SDS_P2;PMS_P1;PMS_P2;Temp;Humidity;BMP_temperature;BMP_pressure;BME280_temperature;BME280_humidity;BME280_pressure;Samples;Min_cycle;Max_cycle;Signal;HPM_P1;HPM_P2
2022/11/29 00:00:10;;;;;;;1.63;0.83;;;;;;;6.65;79.35;99335.66;6249261;22;20180;-83
2022/11/29 00:02:35;;;;;;;3.00;1.50;;;;;;;6.51;80.42;99337.00;6249605;22;20159;-83
2022/11/29 00:05:01;;;;;;;3.40;1.43;;;;;;;6.51;80.20;99337.00;6249661;22;20195;-83
2022/11/29 00:07:26;;;;;;;1.87;1.27;;;;;;;6.49;80.11;99339.66;6249666;22;20245;-83
2022/11/29 00:09:51;;;;;;;2.60;1.10;;;;;;;6.48;80.46;99337.09;6249460;22;20222;-83
2022/11/29 00:12:17;;;;;;;2.63;1.23;;;;;;;6.54;80.68;99339.50;6276086;22;20148;-83
2022/11/29 00:14:42;;;;;;;2.67;1.00;;;;;;;6.82;80.04;99338.53;6249612;22;20180;-83
2022/11/29 00:17:08;;;;;;;3.43;1.40;;;;;;;6.91;79.07;99344.34;6250391;22;20590;-83
2022/11/29 00:19:35;;;;;;;2.57;0.97;;;;;;;6.91;79.05;99331.31;6278162;22;20631;-83
2022/11/29 00:22:02;;;;;;;1.97;1.17;;;;;;;6.79;79.01;99343.84;6251639;22;20160;-84
2022/11/29 00:24:30;;;;;;;1.70;0.90;;;;;;;6.86;79.18;99338.44;6251046;22;20152;-83
2022/11/29 00:26:55;;;;;;;3.33;1.17;;;;;;;6.57;80.03;99342.88;6278262;22;20174;-83
2022/11/29 00:29:21;;;;;;;1.87;1.00;;;;;;;6.47;80.76;99351.03;6251483;22;20148;-83
2022/11/29 00:31:46;;;;;;;1.87;0.93;;;;;;;6.47;80.97;99343.22;6251879;22;20531;-83
2022/11/29 00:34:12;;;;;;;2.60;1.17;;;;;;;6.40;81.34;99345.16;6251384;22;20203;-83
2022/11/29 00:36:37;;;;;;;3.67;1.23;;;;;;;6.45;80.97;99334.59;6251479;22;20148;-83
2022/11/29 00:39:04;;;;;;;1.87;1.13;;;;;;;6.66;80.66;99334.75;6278094;22;20453;-83
2022/11/29 00:41:30;;;;;;;1.77;0.90;;;;;;;6.84;79.62;99340.25;6278202;22;20219;-83
2022/11/29 00:43:55;;;;;;;2.30;1.20;;;;;;;6.66;79.16;99337.34;6278198;22;20513;-82
2022/11/29 00:46:21;;;;;;;1.97;1.33;;;;;;;6.59;79.41;99335.00;6277999;22;20157;-83
2022/11/29 00:48:46;;;;;;;2.27;1.17;;;;;;;6.73;79.54;99338.81;6277949;22;20577;-83
2022/11/29 00:51:12;;;;;;;2.67;1.30;;;;;;;6.68;80.19;99332.09;6278158;22;20172;-83
2022/11/29 00:53:38;;;;;;;2.20;0.97;;;;;;;6.60;80.59;99334.09;6278128;22;20148;-82
2022/11/29 00:56:04;;;;;;;3.90;1.10;;;;;;;6.61;80.39;99328.84;6277944;22;20149;-82
2022/11/29 00:58:31;;;;;;;2.33;1.40;;;;;;;6.52;80.77;99330.91;6277965;22;20158;-83
2022/11/29 01:00:57;;;;;;;3.57;1.20;;;;;;;6.46;81.27;99325.88;6277865;22;20500;-82
2022/11/29 01:03:23;;;;;;;3.47;1.63;;;;;;;6.59;80.95;99320.22;6251199;22;20596;-83
2022/11/29 01:05:48;;;;;;;2.37;1.13;;;;;;;6.74;80.72;99321.44;6277994;22;20149;-83
2022/11/29 01:08:14;;;;;;;1.60;0.97;;;;;;;6.52;81.51;99333.50;6277773;22;20148;-83
2022/11/29 01:10:41;;;;;;;2.50;1.27;;;;;;;6.66;80.91;99320.84;6277741;22;20151;-83
2022/11/29 01:13:07;;;;;;;2.73;1.40;;;;;;;6.64;80.47;99318.31;6251488;22;20176;-83
2022/11/29 01:15:33;;;;;;;2.37;1.03;;;;;;;6.74;79.93;99321.44;6251150;22;20218;-82
2022/11/29 01:18:02;;;;;;;3.57;1.60;;;;;;;6.66;80.18;99318.25;6277869;22;20153;-82
2022/11/29 01:20:27;;;;;;;3.17;1.73;;;;;;;6.83;80.01;99313.34;6245518;23;20197;-82
2022/11/29 01:22:52;;;;;;;2.53;1.30;;;;;;;6.96;79.21;99306.78;6245988;23;20465;-83
2022/11/29 01:25:18;;;;;;;3.60;1.60;;;;;;;6.81;79.89;99308.16;6247298;23;20609;-83
2022/11/29 01:27:44;;;;;;;3.30;1.67;;;;;;;6.74;79.88;99306.69;6246981;22;20160;-82
2022/11/29 01:30:10;;;;;;;3.50;1.47;;;;;;;6.75;80.72;99310.13;6246614;22;20141;-82
2022/11/29 01:32:36;;;;;;;2.10;1.13;;;;;;;6.68;81.02;99309.47;6245832;23;20149;-83
2022/11/29 01:35:03;;;;;;;4.03;1.57;;;;;;;6.71;80.67;99301.56;6247177;22;20153;-81
2022/11/29 01:37:28;;;;;;;2.93;1.43;;;;;;;6.71;80.54;99303.31;6247012;22;20588;-83
2022/11/29 01:39:54;;;;;;;2.70;1.60;;;;;;;6.67;81.45;99304.34;6246855;22;20203;-83
2022/11/29 01:42:19;;;;;;;3.03;1.43;;;;;;;6.84;80.47;99301.16;6246711;22;20160;-83
2022/11/29 01:44:45;;;;;;;3.77;1.50;;;;;;;6.85;80.70;99300.25;6245716;23;20149;-83
2022/11/29 01:47:11;;;;;;;2.73;1.37;;;;;;;6.65;80.92;99301.81;6245706;23;20232;-82
2022/11/29 01:49:40;;;;;;;1.80;1.00;;;;;;;6.77;81.01;99298.75;6245514;23;20149;-82
2022/11/29 01:52:10;;;;;;;5.37;2.87;;;;;;;7.03;79.65;99299.59;6246754;22;20510;-83
2022/11/29 01:54:39;;;;;;;3.07;1.20;;;;;;;7.08;79.25;99300.28;6246332;23;20149;-83
2022/11/29 01:57:07;;;;;;;2.97;1.43;;;;;;;6.93;79.45;99301.69;6246857;22;20152;-83
2022/11/29 01:59:36;;;;;;;2.00;1.07;;;;;;;6.87;79.96;99301.03;6245505;23;20191;-83
2022/11/29 02:02:11;;;;;;;2.77;1.10;;;;;;;6.72;81.33;99300.69;6246601;22;20149;-82
2022/11/29 02:04:37;;;;;;;2.53;1.03;;;;;;;6.65;81.29;99304.41;6247347;22;20216;-82
2022/11/29 02:07:03;;;;;;;2.43;1.10;;;;;;;6.67;80.75;99306.94;6245471;23;20152;-83
2022/11/29 02:09:29;;;;;;;3.97;1.87;;;;;;;6.62;81.68;99304.50;6246570;22;20156;-82
2022/11/29 02:12:26;;;;;;;1.83;0.97;;;;;;;6.62;82.18;99298.44;6246618;22;20177;-83
2022/11/29 02:15:06;;;;;;;2.87;1.37;;;;;;;6.71;82.38;99296.34;6245506;23;20477;-83
2022/11/29 02:18:09;;;;;;;2.17;1.27;;;;;;;6.90;81.29;99298.31;6246245;23;20488;-82
2022/11/29 02:21:07;;;;;;;2.07;0.83;;;;;;;6.67;81.64;99297.38;6271188;22;20260;-82
2022/11/29 02:23:57;;;;;;;2.53;1.10;;;;;;;6.92;81.16;99296.53;6277500;22;20542;-82
2022/11/29 02:26:57;;;;;;;1.90;1.10;;;;;;;6.75;81.32;99299.72;6276934;22;20140;-82
2022/11/29 02:29:23;;;;;;;3.33;1.43;;;;;;;6.86;81.62;99296.75;6250483;22;20187;-83
2022/11/29 02:32:12;;;;;;;1.40;1.00;;;;;;;6.91;81.44;99292.22;6276853;22;20573;-83
2022/11/29 02:34:48;;;;;;;2.17;1.07;;;;;;;7.10;81.00;99301.91;6250315;22;20235;-82
2022/11/29 02:37:19;;;;;;;2.03;1.30;;;;;;;7.23;79.35;99299.75;6276984;22;20571;-83
2022/11/29 02:40:10;;;;;;;2.13;1.30;;;;;;;7.23;79.22;99297.13;6276566;22;20183;-82
2022/11/29 02:42:51;;;;;;;2.30;1.20;;;;;;;7.27;79.84;99296.97;6277244;22;20175;-83
2022/11/29 02:45:34;;;;;;;1.97;1.07;;;;;;;7.36;79.66;99295.78;6277133;22;20273;-83
2022/11/29 02:48:33;;;;;;;1.83;0.90;;;;;;;7.19;79.55;99306.81;6277013;22;20132;-82
2022/11/29 02:51:08;;;;;;;2.23;1.27;;;;;;;7.35;79.36;99294.06;6276812;22;20198;-83
2022/11/29 02:53:48;;;;;;;3.67;1.57;;;;;;;7.32;79.48;99299.38;6276939;22;20211;-82
2022/11/29 02:56:23;;;;;;;4.33;1.90;;;;;;;7.29;78.96;99292.53;6249930;22;20583;-82
2022/11/29 02:59:15;;;;;;;2.33;1.10;;;;;;;7.42;79.42;99292.91;6277021;22;20581;-83
2022/11/29 03:02:03;;;;;;;1.57;0.73;;;;;;;7.23;79.36;99297.97;6219891;22;20169;-82
2022/11/29 03:04:28;;;;;;;2.97;1.27;;;;;;;6.94;80.82;99299.94;6249950;22;20145;-82
2022/11/29 03:07:00;;;;;;;1.83;0.77;;;;;;;6.89;82.19;99300.09;6276663;22;20598;-82
2022/11/29 03:09:41;;;;;;;1.63;1.00;;;;;;;7.00;81.02;99303.16;6276725;22;20141;-82
2022/11/29 03:12:23;;;;;;;2.00;0.80;;;;;;;7.03;81.56;99303.06;6276547;22;20179;-83
2022/11/29 03:15:04;;;;;;;2.47;0.90;;;;;;;7.17;80.92;99308.63;6276759;22;20133;-82
2022/11/29 03:17:29;;;;;;;2.63;1.10;;;;;;;6.95;81.79;99306.81;6276985;22;20139;-82
2022/11/29 03:20:06;;;;;;;2.30;1.03;;;;;;;6.98;81.83;99311.94;6276490;22;20184;-82
2022/11/29 03:22:39;;;;;;;1.67;0.90;;;;;;;6.71;83.04;99313.72;6276804;22;20163;-83
2022/11/29 03:25:07;;;;;;;1.70;0.73;;;;;;;6.71;83.50;99321.56;6276945;22;20145;-82
2022/11/29 03:28:00;;;;;;;2.00;1.10;;;;;;;6.96;82.94;99318.97;6276622;22;20144;-83
2022/11/29 03:30:28;;;;;;;3.17;1.10;;;;;;;7.01;82.33;99315.28;6249617;22;20223;-82
2022/11/29 03:32:53;;;;;;;2.00;1.00;;;;;;;6.97;82.71;99311.06;6276277;22;20148;-82
2022/11/29 03:35:29;;;;;;;1.67;1.00;;;;;;;7.07;81.52;99311.63;6276828;22;20149;-82
2022/11/29 03:38:13;;;;;;;2.57;1.20;;;;;;;7.01;81.82;99310.09;6276533;22;20132;-82
2022/11/29 03:40:48;;;;;;;3.03;1.00;;;;;;;7.06;81.81;99310.75;6276594;22;20245;-83
2022/11/29 03:43:28;;;;;;;2.57;1.20;;;;;;;7.10;81.52;99311.53;6276794;22;20548;-83
2022/11/29 03:46:05;;;;;;;1.70;0.80;;;;;;;7.07;82.11;99316.84;6276571;22;20143;-82
2022/11/29 03:48:41;;;;;;;1.67;0.97;;;;;;;7.24;81.38;99320.53;6276457;22;20139;-82
2022/11/29 03:51:20;;;;;;;2.20;1.30;;;;;;;7.29;80.97;99317.75;6249489;22;20540;-82
2022/11/29 03:54:01;;;;;;;1.70;0.83;;;;;;;7.22;81.35;99326.72;6249741;22;20168;-83
2022/11/29 03:56:33;;;;;;;2.70;1.60;;;;;;;7.23;81.20;99320.59;6276576;22;20132;-83
2022/11/29 03:59:16;;;;;;;3.37;1.27;;;;;;;7.17;81.84;99328.63;6276446;22;20472;-83
2022/11/29 04:02:20;;;;;;;3.77;1.30;;;;;;;7.19;81.26;99322.47;6276409;22;20167;-83
2022/11/29 04:05:23;;;;;;;8.27;2.17;;;;;;;7.03;82.19;99329.13;6193122;22;20167;-82
2022/11/29 04:08:01;;;;;;;5.83;2.03;;;;;;;7.37;81.23;99339.19;6249486;22;20179;-84
2022/11/29 04:10:47;;;;;;;3.67;1.63;;;;;;;7.46;80.75;99341.47;6276080;22;20159;-84
2022/11/29 04:13:28;;;;;;;3.63;1.70;;;;;;;7.36;80.22;99345.31;6276213;22;20147;-84
2022/11/29 04:16:16;;;;;;;2.93;1.43;;;;;;;7.47;80.46;99343.16;6249584;22;20148;-83
2022/11/29 04:18:54;;;;;;;6.47;2.17;;;;;;;7.45;80.56;99344.97;6206081;22;20184;-83
2022/11/29 04:21:48;;;;;;;6.13;2.00;;;;;;;7.47;80.34;99343.16;6249862;22;20251;-84
2022/11/29 04:24:42;;;;;;;3.70;2.03;;;;;;;7.18;81.33;99338.16;6276047;22;20137;-83
2022/11/29 04:27:24;;;;;;;3.40;1.70;;;;;;;7.29;81.09;99329.03;6276380;22;20560;-83
2022/11/29 04:29:49;;;;;;;2.83;1.20;;;;;;;7.18;81.83;99331.16;6276204;22;20208;-83
2022/11/29 04:32:36;;;;;;;2.93;1.40;;;;;;;7.25;81.47;99337.88;6249101;22;20195;-83
2022/11/29 04:35:19;;;;;;;2.97;1.40;;;;;;;7.34;80.61;99328.84;6276389;22;20156;-83
2022/11/29 04:37:59;;;;;;;2.80;1.47;;;;;;;7.39;80.70;99319.97;6249432;22;20140;-83
2022/11/29 04:40:59;;;;;;;3.43;1.63;;;;;;;7.31;80.65;99322.00;6275858;22;20172;-83
2022/11/29 04:44:02;;;;;;;3.87;1.83;;;;;;;7.53;80.88;99327.28;6249413;22;20141;-83
2022/11/29 04:46:45;;;;;;;3.53;1.50;;;;;;;7.40;80.28;99320.81;6275834;22;20201;-83
2022/11/29 04:49:16;;;;;;;3.77;1.73;;;;;;;7.31;80.91;99322.00;6276253;22;20137;-83
2022/11/29 04:51:56;;;;;;;3.73;1.87;;;;;;;7.37;81.38;99333.97;6276187;22;20209;-83
2022/11/29 04:54:43;;;;;;;3.73;1.83;;;;;;;7.48;80.49;99334.44;6275680;22;20144;-83
2022/11/29 04:57:27;;;;;;;3.80;2.00;;;;;;;7.66;80.48;99338.97;6276012;22;20159;-83
2022/11/29 05:00:10;;;;;;;4.70;1.50;;;;;;;7.83;79.29;99338.34;6249430;22;20253;-84
2022/11/29 05:02:56;;;;;;;2.40;1.23;;;;;;;7.72;79.67;99333.53;6249199;22;20137;-84
2022/11/29 05:05:39;;;;;;;2.93;1.27;;;;;;;7.83;79.32;99341.81;6278112;22;20161;-84
2022/11/29 05:08:28;;;;;;;1.87;1.17;;;;;;;7.84;79.10;99340.00;6278046;22;20209;-84
2022/11/29 05:11:30;;;;;;;2.97;1.37;;;;;;;7.97;79.26;99342.09;6278313;22;20208;-84
2022/11/29 05:14:08;;;;;;;2.83;1.70;;;;;;;8.00;78.98;99333.28;6277673;22;20155;-84
2022/11/29 05:16:59;;;;;;;1.70;0.93;;;;;;;8.01;78.70;99338.47;6278054;22;20494;-84
2022/11/29 05:20:02;;;;;;;3.37;1.50;;;;;;;7.90;79.07;99343.25;6277962;22;20239;-82
2022/11/29 05:22:55;;;;;;;1.63;0.93;;;;;;;7.61;79.75;99343.50;6277610;22;20159;-82
2022/11/29 05:25:24;;;;;;;1.33;0.90;;;;;;;7.67;80.13;99340.69;6250969;22;20283;-82
2022/11/29 05:28:07;;;;;;;3.73;1.23;;;;;;;7.67;80.26;99345.88;6250903;22;20459;-83
2022/11/29 05:30:47;;;;;;;3.53;1.73;;;;;;;7.75;80.25;99349.06;6278254;22;20168;-83
2022/11/29 05:33:19;;;;;;;3.30;1.70;;;;;;;7.64;80.30;99351.22;6250713;22;20152;-83
2022/11/29 05:36:00;;;;;;;6.47;2.83;;;;;;;7.54;81.40;99355.09;6277836;22;20136;-82
2022/11/29 05:38:43;;;;;;;7.80;3.13;;;;;;;7.64;81.22;99352.97;6277435;22;20195;-83
2022/11/29 05:41:35;;;;;;;5.63;2.67;;;;;;;7.83;80.45;99360.06;6277768;22;20172;-82
2022/11/29 05:44:35;;;;;;;10.03;4.00;;;;;;;7.82;80.28;99357.50;6250804;22;20541;-83
2022/11/29 05:47:08;;;;;;;4.43;1.90;;;;;;;7.41;81.72;99369.47;6277796;22;20141;-82
2022/11/29 05:49:47;;;;;;;3.67;1.83;;;;;;;7.38;82.03;99370.44;6250767;22;20164;-83
2022/11/29 05:52:43;;;;;;;6.27;3.13;;;;;;;7.48;81.97;99367.47;6250593;22;20481;-83
2022/11/29 05:55:46;;;;;;;3.77;2.10;;;;;;;7.34;82.72;99370.56;6277494;22;20164;-82
2022/11/29 05:58:43;;;;;;;3.30;1.90;;;;;;;7.40;82.69;99365.16;6250408;22;20579;-83
2022/11/29 06:01:20;;;;;;;3.03;1.37;;;;;;;7.55;82.04;99367.19;6250572;22;20176;-83
2022/11/29 06:04:03;;;;;;;3.70;1.37;;;;;;;7.82;80.90;99376.63;6277350;22;20143;-82
2022/11/29 06:07:13;;;;;;;3.60;1.60;;;;;;;7.90;80.72;99373.72;6277577;22;20144;-83
2022/11/29 06:10:12;;;;;;;4.23;1.83;;;;;;;8.05;79.56;99378.34;6233861;22;20191;-83
2022/11/29 06:12:38;;;;;;;3.13;1.37;;;;;;;7.87;79.95;99379.91;6195797;22;20442;-83
2022/11/29 06:15:34;;;;;;;2.97;1.27;;;;;;;7.84;80.38;99380.00;6250157;22;20543;-83
2022/11/29 06:18:22;;;;;;;2.93;1.40;;;;;;;8.05;79.97;99378.34;6277375;22;20134;-83
2022/11/29 06:21:11;;;;;;;2.63;1.20;;;;;;;8.05;79.76;99379.19;6245186;23;20188;-82
2022/11/29 06:23:58;;;;;;;2.63;1.50;;;;;;;8.03;79.50;99382.78;6246869;22;20133;-82
2022/11/29 06:26:58;;;;;;;3.70;1.33;;;;;;;7.97;79.42;99381.25;6245178;23;20154;-82
2022/11/29 06:29:32;;;;;;;3.30;1.13;;;;;;;7.86;80.62;99385.19;6246798;23;20133;-82
2022/11/29 06:32:33;;;;;;;2.07;0.83;;;;;;;7.81;80.78;99377.50;6245908;23;20151;-83
2022/11/29 06:35:08;;;;;;;2.07;0.83;;;;;;;7.80;80.79;99378.44;6197807;22;20157;-83
2022/11/29 06:37:37;;;;;;;1.53;0.83;;;;;;;7.89;80.65;99382.44;6245165;23;20172;-82
2022/11/29 06:40:04;;;;;;;2.20;1.10;;;;;;;7.77;80.84;99388.13;6246273;22;20177;-83
2022/11/29 06:42:30;;;;;;;12.23;2.47;;;;;;;7.70;81.62;99390.13;6246667;22;20164;-83
2022/11/29 06:44:55;;;;;;;6.23;2.40;;;;;;;7.67;82.44;99392.84;6246360;22;20222;-83
2022/11/29 06:47:33;;;;;;;3.73;1.70;;;;;;;7.64;82.43;99392.97;6246487;22;20146;-83
2022/11/29 06:50:29;;;;;;;3.37;1.13;;;;;;;7.60;83.13;99393.97;6246357;22;20165;-81
2022/11/29 06:53:21;;;;;;;1.37;0.80;;;;;;;7.85;81.87;99392.16;6245532;23;20492;-83
2022/11/29 06:56:21;;;;;;;2.30;1.07;;;;;;;7.78;82.11;99393.28;6246256;22;20131;-83
2022/11/29 06:59:01;;;;;;;3.10;1.40;;;;;;;7.87;81.30;99386.88;6245010;23;20158;-82
2022/11/29 07:01:35;;;;;;;1.27;0.77;;;;;;;7.77;81.88;99393.34;6246379;22;20555;-82
2022/11/29 07:04:28;;;;;;;1.53;0.93;;;;;;;7.83;81.50;99395.75;6246209;22;20158;-83
2022/11/29 07:06:54;;;;;;;1.07;0.77;;;;;;;7.86;81.87;99398.25;6246408;22;20162;-82
2022/11/29 07:09:24;;;;;;;1.73;0.90;;;;;;;7.93;81.62;99397.94;6246183;22;20663;-82
2022/11/29 07:11:50;;;;;;;2.03;1.07;;;;;;;7.90;81.42;99387.63;6245269;23;20604;-83
2022/11/29 07:14:15;;;;;;;4.83;0.90;;;;;;;7.89;81.70;99388.50;6244544;23;20164;-83
2022/11/29 07:16:47;;;;;;;1.30;0.67;;;;;;;7.83;82.29;99378.34;6244675;23;20185;-83
2022/11/29 07:19:30;;;;;;;1.10;0.50;;;;;;;7.60;83.48;99383.53;6253280;22;20161;-83
2022/11/29 07:22:33;;;;;;;1.50;0.63;;;;;;;7.51;84.03;99383.88;6276733;22;20166;-83
2022/11/29 07:25:21;;;;;;;1.67;0.77;;;;;;;7.71;83.95;99384.00;6249962;22;20176;-83
2022/11/29 07:27:52;;;;;;;2.03;0.83;;;;;;;7.97;82.30;99376.03;6249593;22;20214;-83
2022/11/29 07:30:28;;;;;;;1.73;0.90;;;;;;;8.01;82.49;99385.47;6276396;22;20151;-82
2022/11/29 07:33:15;;;;;;;2.93;0.97;;;;;;;8.04;82.02;99379.28;6276763;22;20136;-83
2022/11/29 07:35:53;;;;;;;2.40;1.13;;;;;;;8.16;81.80;99375.31;6249631;22;20603;-82
2022/11/29 07:39:00;;;;;;;3.93;1.33;;;;;;;8.24;81.31;99381.94;6276228;22;20216;-82
2022/11/29 07:41:42;;;;;;;2.07;1.17;;;;;;;8.10;81.53;99375.59;6275135;22;20265;-82
2022/11/29 07:44:40;;;;;;;2.20;0.80;;;;;;;8.22;81.40;99372.47;6276398;22;20560;-83
2022/11/29 07:47:07;;;;;;;2.63;1.07;;;;;;;8.18;81.91;99370.88;6250179;22;20154;-83
2022/11/29 07:49:32;;;;;;;1.00;0.60;;;;;;;8.11;82.41;99365.06;6276912;22;20166;-83
2022/11/29 07:51:58;;;;;;;1.50;0.87;;;;;;;8.26;81.51;99374.03;6247054;22;20190;-83
2022/11/29 07:54:24;;;;;;;2.33;0.90;;;;;;;8.38;81.63;99373.63;6276310;22;20145;-83
2022/11/29 07:56:49;;;;;;;1.60;0.80;;;;;;;8.42;81.63;99369.94;6276786;22;20156;-83
2022/11/29 07:59:15;;;;;;;2.27;0.80;;;;;;;8.33;81.65;99378.16;6249558;22;20180;-83
2022/11/29 08:01:40;;;;;;;1.83;0.90;;;;;;;8.41;81.00;99382.16;6276188;22;20176;-83
2022/11/29 08:04:07;;;;;;;2.57;1.03;;;;;;;8.37;81.17;99387.56;6276309;22;20231;-82
2022/11/29 08:06:33;;;;;;;2.93;1.30;;;;;;;8.40;81.31;99388.31;6276249;22;20679;-83
2022/11/29 08:08:59;;;;;;;2.90;1.13;;;;;;;8.44;80.94;99386.41;6276243;22;20173;-83
2022/11/29 08:11:24;;;;;;;2.50;1.10;;;;;;;8.43;81.40;99395.16;6276337;22;20142;-83
2022/11/29 08:13:55;;;;;;;2.60;1.33;;;;;;;8.49;81.37;99397.53;6249400;22;20165;-83
2022/11/29 08:16:21;;;;;;;2.80;1.27;;;;;;;8.44;81.89;99402.06;6249605;22;20168;-83
2022/11/29 08:18:46;;;;;;;1.93;0.90;;;;;;;8.68;80.94;99400.25;6276105;22;20172;-83
2022/11/29 08:21:16;;;;;;;3.93;1.10;;;;;;;8.65;81.54;99401.22;6249649;22;20192;-83
2022/11/29 08:23:42;;;;;;;1.97;0.77;;;;;;;8.51;81.22;99398.31;6248694;22;20150;-83
2022/11/29 08:26:08;;;;;;;3.03;1.07;;;;;;;8.32;81.96;99402.56;6276711;22;20536;-83
2022/11/29 08:28:33;;;;;;;3.70;1.50;;;;;;;8.42;82.08;99401.28;6276737;22;20471;-83
2022/11/29 08:31:04;;;;;;;4.30;1.40;;;;;;;8.61;81.74;99391.81;6276434;22;20650;-83
2022/11/29 08:33:29;;;;;;;0.90;0.60;;;;;;;8.68;80.40;99387.19;6277110;22;20570;-83
2022/11/29 08:35:55;;;;;;;1.77;0.60;;;;;;;8.56;80.12;99384.19;6249616;22;20148;-82
2022/11/29 08:38:21;;;;;;;2.20;1.00;;;;;;;8.53;80.69;99386.06;6277067;22;20592;-82
2022/11/29 08:40:46;;;;;;;1.03;0.60;;;;;;;8.42;81.33;99388.22;6278602;22;20183;-83
2022/11/29 08:43:11;;;;;;;2.13;1.03;;;;;;;8.36;81.54;99385.88;6251576;22;20246;-82
2022/11/29 08:45:37;;;;;;;3.53;1.10;;;;;;;8.65;81.65;99380.31;6278298;22;20561;-83
2022/11/29 08:48:02;;;;;;;6.50;3.10;;;;;;;8.76;80.63;99383.34;6251589;22;20153;-82
2022/11/29 08:50:28;;;;;;;4.27;1.33;;;;;;;8.69;80.31;99379.28;6278211;22;20149;-83
2022/11/29 08:55:41;;;;;;;3.67;1.80;;;;;;;8.38;82.49;99381.44;6278646;22;20157;-82
2022/11/29 08:58:10;;;;;;;3.30;1.17;;;;;;;8.51;82.23;99374.81;6251520;22;20181;-82
2022/11/29 09:00:36;;;;;;;2.43;1.10;;;;;;;8.60;81.70;99369.19;6278403;22;20198;-82
2022/11/29 09:05:47;;;;;;;2.03;1.10;;;;;;;8.92;80.71;99362.66;6278882;22;20517;-82
2022/11/29 09:08:13;;;;;;;5.07;2.20;;;;;;;8.83;80.53;99353.41;6251447;22;20153;-82
2022/11/29 09:10:40;;;;;;;3.73;1.57;;;;;;;8.73;81.03;99346.88;6278073;22;20463;-82
2022/11/29 09:13:07;;;;;;;3.43;1.70;;;;;;;8.63;81.23;99346.44;6278089;22;20577;-82
2022/11/29 09:15:32;;;;;;;2.83;1.43;;;;;;;8.63;81.09;99342.94;6278023;22;20154;-82
2022/11/29 09:17:58;;;;;;;3.20;1.50;;;;;;;8.61;81.29;99348.25;6251605;22;20157;-82
2022/11/29 09:20:24;;;;;;;4.63;1.60;;;;;;;8.51;82.67;99349.56;6245883;23;20209;-82
2022/11/29 09:22:50;;;;;;;4.47;1.93;;;;;;;8.70;81.64;99340.94;6247355;22;20151;-82
2022/11/29 09:25:15;;;;;;;8.20;3.37;;;;;;;8.94;81.06;99340.75;6247339;22;20581;-82
2022/11/29 09:27:41;;;;;;;9.57;3.23;;;;;;;9.11;81.00;99340.91;6247678;22;20147;-82
2022/11/29 09:30:07;;;;;;;5.77;2.00;;;;;;;9.00;80.37;99332.66;6247648;22;20629;-82
2022/11/29 09:32:35;;;;;;;3.47;1.37;;;;;;;8.93;80.04;99328.63;6246006;23;20169;-82
2022/11/29 09:35:01;;;;;;;4.53;1.70;;;;;;;8.90;80.97;99330.50;6247205;23;20150;-82
2022/11/29 09:37:26;;;;;;;3.63;1.80;;;;;;;8.92;80.68;99326.91;6247253;22;20152;-82
2022/11/29 09:39:52;;;;;;;6.13;1.80;;;;;;;8.62;81.79;99323.81;6247062;23;20187;-83
2022/11/29 09:42:46;;;;;;;3.93;1.80;;;;;;;8.61;82.09;99327.34;6245959;23;20181;-82
2022/11/29 09:45:18;;;;;;;5.13;2.67;;;;;;;8.66;82.71;99321.94;6247582;22;20229;-82
2022/11/29 09:47:49;;;;;;;3.67;1.90;;;;;;;8.80;81.85;99316.97;6246013;23;20473;-82
2022/11/29 09:50:33;;;;;;;5.40;2.90;;;;;;;8.98;81.38;99318.81;6245721;22;20232;-82
2022/11/29 09:53:25;;;;;;;5.40;2.33;;;;;;;9.02;81.33;99317.75;6245926;23;20205;-83
2022/11/29 09:56:12;;;;;;;3.87;1.63;;;;;;;9.08;81.13;99314.88;6246004;23;20148;-83
2022/11/29 09:58:45;;;;;;;4.53;2.00;;;;;;;9.10;80.75;99320.03;6247403;23;20132;-82
2022/11/29 10:01:18;;;;;;;5.90;1.80;;;;;;;9.12;81.32;99315.56;6245950;22;20169;-86
2022/11/29 10:03:50;;;;;;;4.93;2.37;;;;;;;8.99;81.50;99309.19;6246349;22;20195;-87
2022/11/29 10:06:29;;;;;;;3.77;2.57;;;;;;;8.96;80.72;99317.19;6246112;23;20145;-88
2022/11/29 10:09:41;;;;;;;4.30;2.20;;;;;;;8.75;82.01;99310.25;6246841;23;20519;-88
2022/11/29 10:12:25;;;;;;;4.13;2.00;;;;;;;8.74;81.71;99306.78;6197494;22;20157;-87
2022/11/29 10:14:59;;;;;;;4.70;2.20;;;;;;;8.76;81.72;99299.72;6244207;23;20143;-87
2022/11/29 10:17:35;;;;;;;7.20;3.00;;;;;;;8.74;82.07;99301.56;6245855;22;20158;-88
2022/11/29 10:20:22;;;;;;;7.03;3.13;;;;;;;8.95;82.18;99300.63;6264079;22;20183;-87
2022/11/29 10:23:01;;;;;;;5.23;2.60;;;;;;;9.20;81.19;99306.47;6277179;22;20202;-88
2022/11/29 10:25:36;;;;;;;9.20;3.27;;;;;;;9.16;80.58;99298.84;6250546;22;20155;-88
2022/11/29 10:28:03;;;;;;;5.37;2.67;;;;;;;9.02;81.67;99290.75;6250350;22;20145;-88
2022/11/29 10:30:33;;;;;;;7.10;3.07;;;;;;;9.09;81.50;99298.25;6276961;22;20144;-87
2022/11/29 10:32:59;;;;;;;7.63;3.07;;;;;;;9.12;81.61;99300.72;6277733;22;20529;-88
2022/11/29 10:35:25;;;;;;;6.20;3.23;;;;;;;9.06;81.49;99293.19;6250462;22;20610;-88
2022/11/29 10:37:55;;;;;;;9.67;3.57;;;;;;;8.86;82.22;99290.56;6277237;22;20155;-88
2022/11/29 10:40:29;;;;;;;8.17;3.77;;;;;;;8.81;82.46;99295.13;6277340;22;20179;-87
2022/11/29 10:42:54;;;;;;;16.13;6.27;;;;;;;8.92;82.68;99295.53;6277348;22;20214;-87
2022/11/29 10:45:36;;;;;;;9.13;3.40;;;;;;;9.14;82.33;99291.09;6277227;22;20172;-87
2022/11/29 10:48:05;;;;;;;10.67;3.90;;;;;;;9.24;81.16;99289.75;6276984;22;20139;-88
2022/11/29 10:50:34;;;;;;;8.83;3.93;;;;;;;9.19;81.03;99283.03;6276785;22;20145;-87
2022/11/29 10:53:06;;;;;;;5.63;2.63;;;;;;;9.14;80.95;99283.22;6250110;22;20178;-88
2022/11/29 10:55:44;;;;;;;10.33;3.83;;;;;;;9.13;81.31;99283.28;6276896;22;20145;-87
2022/11/29 10:58:24;;;;;;;8.97;3.83;;;;;;;9.25;81.69;99272.25;6250250;22;20524;-88
2022/11/29 11:01:12;;;;;;;7.83;3.27;;;;;;;9.34;81.06;99277.09;6276317;22;20170;-87
2022/11/29 11:03:42;;;;;;;4.77;2.90;;;;;;;9.37;81.00;99276.09;6277237;22;20133;-87
2022/11/29 11:06:13;;;;;;;7.30;3.63;;;;;;;9.30;81.45;99270.31;6250027;22;20156;-88
2022/11/29 11:08:42;;;;;;;8.43;3.00;;;;;;;9.35;80.97;99276.19;6250005;22;20152;-88
2022/11/29 11:11:09;;;;;;;7.43;3.00;;;;;;;9.40;80.92;99271.59;6250110;22;20159;-88
2022/11/29 11:13:36;;;;;;;5.87;3.10;;;;;;;9.35;80.77;99265.72;6249996;22;20187;-88
2022/11/29 11:16:14;;;;;;;7.70;3.13;;;;;;;9.37;80.86;99276.09;6276752;22;20221;-88
2022/11/29 11:18:40;;;;;;;4.97;2.50;;;;;;;9.44;80.60;99273.13;6276435;22;20136;-87
2022/11/29 11:21:11;;;;;;;6.33;2.80;;;;;;;9.38;80.69;99277.81;6249889;22;20190;-88
2022/11/29 11:24:01;;;;;;;6.50;2.43;;;;;;;9.34;81.31;99271.00;6249971;22;20156;-88
2022/11/29 11:26:43;;;;;;;4.53;2.27;;;;;;;9.42;81.60;99272.38;6250360;22;20144;-88
2022/11/29 11:29:17;;;;;;;8.53;2.17;;;;;;;9.37;80.52;99270.88;6249804;22;20147;-88
2022/11/29 11:31:52;;;;;;;6.77;2.80;;;;;;;9.33;80.62;99272.78;6276806;22;20159;-88
2022/11/29 11:34:33;;;;;;;4.97;1.97;;;;;;;9.46;79.85;99263.44;6276564;22;20135;-89
2022/11/29 11:37:13;;;;;;;7.77;2.73;;;;;;;9.37;80.29;99265.63;6276328;22;20147;-88
2022/11/29 11:39:40;;;;;;;6.57;3.17;;;;;;;9.22;80.72;99268.03;6276409;22;20148;-88
2022/11/29 11:45:10;;;;;;;7.80;3.03;;;;;;;9.54;80.26;99258.72;6276575;22;20203;-88
2022/11/29 11:47:57;;;;;;;4.73;2.60;;;;;;;9.62;79.84;99253.97;6276451;22;20182;-88
2022/11/29 11:50:31;;;;;;;6.97;3.03;;;;;;;9.73;79.21;99256.09;6276224;22;20446;-89
2022/11/29 11:53:00;;;;;;;5.97;2.50;;;;;;;9.64;79.44;99254.75;6249547;22;20187;-88
2022/11/29 11:55:39;;;;;;;9.00;3.63;;;;;;;9.75;79.12;99251.63;6276194;22;20175;-88
2022/11/29 11:58:10;;;;;;;6.30;3.40;;;;;;;9.69;79.72;99249.31;6276535;22;20524;-89
2022/11/29 12:01:10;;;;;;;5.67;2.70;;;;;;;9.74;79.35;99253.41;6249287;22;20192;-89
2022/11/29 12:03:44;;;;;;;5.93;2.63;;;;;;;9.76;79.39;99242.84;6243919;22;20187;-89
2022/11/29 12:06:40;;;;;;;4.27;2.20;;;;;;;9.67;79.65;99251.97;6249596;22;20474;-88
2022/11/29 12:09:33;;;;;;;6.53;3.00;;;;;;;9.64;79.83;99249.50;6249444;22;20162;-88
2022/11/29 12:12:02;;;;;;;8.57;3.37;;;;;;;9.63;80.01;99245.22;6276298;22;20257;-88
2022/11/29 12:14:49;;;;;;;5.77;2.40;;;;;;;9.70;80.28;99232.66;6279920;22;20174;-88
2022/11/29 12:17:34;;;;;;;5.97;2.67;;;;;;;9.70;79.78;99238.75;6252908;22;20155;-88
2022/11/29 12:20:35;;;;;;;6.87;3.07;;;;;;;9.65;80.19;99242.50;6280010;22;20519;-88
2022/11/29 12:23:10;;;;;;;6.47;2.17;;;;;;;9.61;80.49;99239.22;6279580;22;20139;-89
2022/11/29 12:25:45;;;;;;;5.40;2.60;;;;;;;9.69;80.25;99236.22;6279824;22;20574;-89
2022/11/29 12:28:12;;;;;;;7.47;4.23;;;;;;;9.82;79.69;99229.47;6277324;22;20146;-88
2022/11/29 12:30:55;;;;;;;5.70;2.70;;;;;;;9.80;79.80;99228.72;6279493;22;20140;-88